createdAt,value
2023-01-09T00:00:35.458Z,28.03
2023-01-09T00:03:05.643Z,28.06
2023-01-09T00:05:35.918Z,28.04
2023-01-09T00:08:08.662Z,28.08
2023-01-09T00:10:40.305Z,28.04
2023-01-09T00:13:12.555Z,28.05
2023-01-09T00:15:43.862Z,28.04
2023-01-09T00:18:14.016Z,28.08
2023-01-09T00:20:44.035Z,28.08
2023-01-09T00:23:13.990Z,28.08
2023-01-09T00:25:43.885Z,28.07
2023-01-09T00:28:13.780Z,28.06
2023-01-09T00:30:44.769Z,28.07
2023-01-09T00:33:15.482Z,28.05
2023-01-09T00:35:45.532Z,28.06
2023-01-09T00:38:15.353Z,28.07
2023-01-09T00:40:45.296Z,28.06
2023-01-09T00:43:15.798Z,28.07
2023-01-09T00:45:46.194Z,28.09
2023-01-09T00:48:32.663Z,28.04
2023-01-09T00:51:03.189Z,28.06
2023-01-09T00:53:35.747Z,28.06
2023-01-09T00:56:09.891Z,28.08
2023-01-09T00:58:40.291Z,28.07
2023-01-09T01:01:10.534Z,28.09
2023-01-09T01:03:40.769Z,28.09
2023-01-09T01:06:29.351Z,28.09
2023-01-09T01:08:59.645Z,28.11
2023-01-09T01:11:29.707Z,28.09
2023-01-09T01:14:00.802Z,28.09
2023-01-09T01:16:30.876Z,28.09
2023-01-09T01:19:00.735Z,28.06
2023-01-09T01:21:30.822Z,28.07
2023-01-09T01:24:00.693Z,28.08
2023-01-09T01:26:30.740Z,28.07
2023-01-09T01:29:01.900Z,28.09
2023-01-09T01:31:31.896Z,28.08
2023-01-09T01:34:01.758Z,28.12
2023-01-09T01:36:31.644Z,28.12
2023-01-09T01:39:01.520Z,28.13
2023-01-09T01:41:37.072Z,28.13
2023-01-09T01:44:10.000Z,28.14
2023-01-09T01:46:40.263Z,28.15
2023-01-09T01:49:16.586Z,28.17
2023-01-09T01:51:53.898Z,28.16
2023-01-09T01:54:28.427Z,28.16
2023-01-09T01:57:01.012Z,28.14
2023-01-09T01:59:52.292Z,28.18
2023-01-09T02:02:26.315Z,28.18
2023-01-09T02:04:58.594Z,28.19
2023-01-09T02:07:28.701Z,28.17
2023-01-09T02:09:59.855Z,28.18
2023-01-09T02:12:30.777Z,28.18
2023-01-09T02:15:17.248Z,28.19
2023-01-09T02:18:11.670Z,28.21
2023-01-09T02:21:03.783Z,28.21
2023-01-09T02:23:39.950Z,28.21
2023-01-09T02:26:18.954Z,28.21
2023-01-09T02:29:11.903Z,28.21
2023-01-09T02:32:10.996Z,28.20
2023-01-09T02:35:09.809Z,28.24
2023-01-09T02:37:48.912Z,28.22
2023-01-09T02:40:26.666Z,28.23
2023-01-09T02:43:00.708Z,28.25
2023-01-09T02:45:30.870Z,28.23
2023-01-09T02:48:00.918Z,28.23
2023-01-09T02:50:47.514Z,28.24
2023-01-09T02:53:57.422Z,28.22
2023-01-09T02:56:38.169Z,28.21
2023-01-09T02:59:26.602Z,28.23
2023-01-09T03:02:16.851Z,28.21
2023-01-09T03:05:21.904Z,28.23
2023-01-09T03:08:02.079Z,28.23
2023-01-09T03:10:43.943Z,28.24
2023-01-09T03:13:18.876Z,28.23
2023-01-09T03:15:52.916Z,28.25
2023-01-09T03:18:27.385Z,28.24
2023-01-09T03:20:58.107Z,28.25
2023-01-09T03:23:28.315Z,28.27
2023-01-09T03:25:58.366Z,28.27
2023-01-09T03:28:31.182Z,28.27
2023-01-09T03:31:01.242Z,28.28
2023-01-09T03:33:31.217Z,28.29
2023-01-09T03:36:01.177Z,28.27
2023-01-09T03:38:31.132Z,28.26
2023-01-09T03:41:01.126Z,28.29
2023-01-09T03:43:31.191Z,28.27
2023-01-09T03:46:01.790Z,28.28
2023-01-09T03:48:31.937Z,28.27
2023-01-09T03:51:01.847Z,28.30
2023-01-09T03:53:31.996Z,28.28
2023-01-09T03:56:02.273Z,28.29
2023-01-09T03:58:32.232Z,28.30
2023-01-09T04:01:07.131Z,28.30
2023-01-09T04:03:40.281Z,28.31
2023-01-09T04:06:10.453Z,28.31
2023-01-09T04:08:40.311Z,28.32
2023-01-09T04:11:12.370Z,28.32
2023-01-09T04:13:42.561Z,28.32
2023-01-09T04:16:12.673Z,28.32
2023-01-09T04:18:42.559Z,28.32
2023-01-09T04:21:12.559Z,28.33
2023-01-09T04:23:42.648Z,28.34
2023-01-09T04:26:12.537Z,28.35
2023-01-09T04:28:42.717Z,28.33
2023-01-09T04:31:12.750Z,28.33
2023-01-09T04:33:42.843Z,28.32
2023-01-09T04:36:12.859Z,28.34
2023-01-09T04:38:42.908Z,28.35
2023-01-09T04:41:12.897Z,28.36
2023-01-09T04:43:44.405Z,28.36
2023-01-09T04:46:14.468Z,28.36
2023-01-09T04:48:44.401Z,28.37
2023-01-09T04:51:14.245Z,28.39
2023-01-09T04:53:44.119Z,28.38
2023-01-09T04:56:14.154Z,28.41
2023-01-09T04:58:44.297Z,28.39
2023-01-09T05:01:14.508Z,28.40
2023-01-09T05:03:44.467Z,28.41
2023-01-09T05:06:14.629Z,28.41
2023-01-09T05:08:44.713Z,28.44
2023-01-09T05:11:14.600Z,28.40
2023-01-09T05:13:44.482Z,28.42
2023-01-09T05:16:14.604Z,28.45
2023-01-09T05:18:44.984Z,28.46
2023-01-09T05:21:15.475Z,28.44
2023-01-09T05:23:45.565Z,28.45
2023-01-09T05:26:15.763Z,28.45
2023-01-09T05:28:45.917Z,28.43
2023-01-09T05:31:15.845Z,28.46
2023-01-09T05:33:45.989Z,28.47
2023-01-09T05:36:16.097Z,28.48
2023-01-09T05:38:46.195Z,28.48
2023-01-09T05:41:16.082Z,28.50
2023-01-09T05:43:46.008Z,28.49
2023-01-09T05:46:15.961Z,28.49
2023-01-09T05:48:47.142Z,28.50
2023-01-09T05:51:17.444Z,28.50
2023-01-09T05:53:47.571Z,28.51
2023-01-09T05:56:17.645Z,28.50
2023-01-09T05:58:47.900Z,28.50
2023-01-09T06:01:18.105Z,28.54
2023-01-09T06:03:48.208Z,28.52
2023-01-09T06:06:18.218Z,28.55
2023-01-09T06:08:48.094Z,28.54
2023-01-09T06:11:17.974Z,28.57
2023-01-09T06:13:48.003Z,28.53
2023-01-09T06:16:17.968Z,28.54
2023-01-09T06:18:48.523Z,28.56
2023-01-09T06:21:18.688Z,28.60
2023-01-09T06:23:49.178Z,28.60
2023-01-09T06:26:19.691Z,28.59
2023-01-09T06:28:49.743Z,28.60
2023-01-09T06:31:19.791Z,28.60
2023-01-09T06:33:49.892Z,28.62
2023-01-09T06:36:22.240Z,28.59
2023-01-09T06:38:52.549Z,28.58
2023-01-09T06:41:22.487Z,28.62
2023-01-09T06:43:52.398Z,28.60
2023-01-09T06:46:22.255Z,28.63
2023-01-09T06:48:52.143Z,28.61
2023-01-09T06:51:22.124Z,28.63
2023-01-09T06:53:54.085Z,28.63
2023-01-09T06:56:24.313Z,28.65
2023-01-09T06:58:54.756Z,28.65
2023-01-09T07:01:24.792Z,28.66
2023-01-09T07:03:55.116Z,28.67
2023-01-09T07:06:25.570Z,28.67
2023-01-09T07:08:55.687Z,28.66
2023-01-09T07:11:25.913Z,28.67
2023-01-09T07:13:56.059Z,28.69
2023-01-09T07:16:25.882Z,28.66
2023-01-09T07:18:57.002Z,28.67
2023-01-09T07:21:27.129Z,28.66
2023-01-09T07:23:57.035Z,28.66
2023-01-09T07:26:26.879Z,28.69
2023-01-09T07:28:56.865Z,28.67
2023-01-09T07:31:26.797Z,28.68
2023-01-09T07:33:56.766Z,28.69
2023-01-09T07:36:26.599Z,28.70
2023-01-09T07:38:56.416Z,28.72
2023-01-09T07:41:26.421Z,28.70
2023-01-09T07:43:56.771Z,28.70
2023-01-09T07:46:27.182Z,28.74
2023-01-09T07:48:57.263Z,28.74
2023-01-09T07:51:27.313Z,28.73
2023-01-09T07:53:57.198Z,28.75
2023-01-09T07:56:27.124Z,28.75
2023-01-09T07:58:57.133Z,28.74
2023-01-09T08:01:27.152Z,28.75
2023-01-09T08:03:57.132Z,28.74
2023-01-09T08:06:27.176Z,28.75
2023-01-09T08:08:57.139Z,28.75
2023-01-09T08:11:27.591Z,28.75
2023-01-09T08:13:57.661Z,28.76
2023-01-09T08:16:27.621Z,28.76
2023-01-09T08:18:57.516Z,28.75
2023-01-09T08:21:28.673Z,28.76
2023-01-09T08:23:58.810Z,28.76
2023-01-09T08:26:28.787Z,28.76
2023-01-09T08:28:58.871Z,28.78
2023-01-09T08:31:28.855Z,28.78
2023-01-09T08:33:58.927Z,28.79
2023-01-09T08:36:29.007Z,28.79
2023-01-09T08:38:59.259Z,28.81
2023-01-09T08:41:47.637Z,28.79
2023-01-09T08:44:35.753Z,28.80
2023-01-09T08:47:08.844Z,28.79
2023-01-09T08:49:40.952Z,28.77
2023-01-09T08:52:11.320Z,28.79
2023-01-09T08:54:42.176Z,28.79
2023-01-09T08:57:12.240Z,28.79
2023-01-09T08:59:42.077Z,28.81
2023-01-09T09:02:13.077Z,28.81
2023-01-09T09:04:43.120Z,28.81
2023-01-09T09:07:13.057Z,28.83
2023-01-09T09:09:43.156Z,28.84
2023-01-09T09:12:13.104Z,28.82
2023-01-09T09:15:01.460Z,28.84
2023-01-09T09:17:31.587Z,28.82
2023-01-09T09:20:02.686Z,28.85
2023-01-09T09:22:33.298Z,28.83
2023-01-09T09:25:03.570Z,28.84
2023-01-09T09:27:38.847Z,28.88
2023-01-09T09:30:09.928Z,28.86
2023-01-09T09:32:40.760Z,28.85
2023-01-09T09:35:11.881Z,28.85
2023-01-09T09:37:42.222Z,28.83
2023-01-09T09:40:39.987Z,28.86
2023-01-09T09:44:09.490Z,28.83
2023-01-09T09:46:42.546Z,28.84
2023-01-09T09:49:28.745Z,28.82
2023-01-09T09:52:06.858Z,28.82
2023-01-09T09:54:45.555Z,28.86
2023-01-09T09:57:20.569Z,28.85
2023-01-09T09:59:53.557Z,28.84
2023-01-09T10:02:55.252Z,28.87
2023-01-09T10:05:43.048Z,28.88
2023-01-09T10:08:51.865Z,28.87
2023-01-09T10:11:44.175Z,28.90
2023-01-09T10:14:23.816Z,28.88
2023-01-09T10:17:03.082Z,28.89
2023-01-09T10:19:36.137Z,28.86
2023-01-09T10:22:39.171Z,28.88
2023-01-09T10:25:37.560Z,28.88
2023-01-09T10:28:29.311Z,28.86
2023-01-09T10:31:07.542Z,28.88
2023-01-09T10:34:11.416Z,28.86
2023-01-09T10:36:53.472Z,28.88
2023-01-09T10:39:34.693Z,28.87
2023-01-09T10:42:10.153Z,28.90
2023-01-09T10:44:51.133Z,28.90
2023-01-09T10:47:37.137Z,28.90
2023-01-09T10:50:38.300Z,28.91
2023-01-09T10:53:23.978Z,28.90
2023-01-09T10:55:58.628Z,28.90
2023-01-09T10:58:28.757Z,28.89
2023-01-09T11:01:01.145Z,28.89
2023-01-09T11:03:32.132Z,28.90
2023-01-09T11:06:05.655Z,28.87
2023-01-09T11:08:45.197Z,28.90
2023-01-09T11:11:32.932Z,28.90
2023-01-09T11:14:33.898Z,28.88
2023-01-09T11:17:06.198Z,28.88
2023-01-09T11:19:36.494Z,28.89
2023-01-09T11:22:11.372Z,28.89
2023-01-09T11:24:41.547Z,28.88
2023-01-09T11:27:17.224Z,28.89
2023-01-09T11:29:47.451Z,28.90
2023-01-09T11:32:25.791Z,28.90
2023-01-09T11:34:55.996Z,28.91
2023-01-09T11:37:32.376Z,28.89
2023-01-09T11:40:03.889Z,28.91
2023-01-09T11:42:51.665Z,28.90
2023-01-09T11:45:26.976Z,28.90
2023-01-09T11:47:57.247Z,28.87
2023-01-09T11:50:32.784Z,28.87
2023-01-09T11:53:21.232Z,28.89
2023-01-09T11:56:06.802Z,28.90
2023-01-09T11:58:37.503Z,28.91
2023-01-09T12:01:38.269Z,28.91
2023-01-09T12:04:42.125Z,28.92
2023-01-09T12:07:26.236Z,28.92
2023-01-09T12:10:35.317Z,28.92
2023-01-09T12:13:24.724Z,28.93
2023-01-09T12:16:06.822Z,28.92
2023-01-09T12:18:48.664Z,28.93
2023-01-09T12:21:26.563Z,28.93
2023-01-09T12:24:18.199Z,28.92
2023-01-09T12:26:50.826Z,28.92
2023-01-09T12:29:41.494Z,28.91
2023-01-09T12:32:11.455Z,28.94
2023-01-09T12:35:02.673Z,28.92
2023-01-09T12:37:52.556Z,28.94
2023-01-09T12:40:47.442Z,28.94
2023-01-09T12:43:36.072Z,28.94
2023-01-09T12:46:17.966Z,28.93
2023-01-09T12:49:29.316Z,28.94
2023-01-09T12:52:25.685Z,28.95
2023-01-09T12:55:05.190Z,28.94
2023-01-09T12:57:45.288Z,28.93
2023-01-09T13:00:21.369Z,28.94
2023-01-09T13:03:11.942Z,28.94
2023-01-09T13:05:49.724Z,28.93
2023-01-09T13:08:29.075Z,28.92
2023-01-09T13:11:20.004Z,28.96
2023-01-09T13:13:57.294Z,28.94
2023-01-09T13:16:43.800Z,28.94
2023-01-09T13:19:32.096Z,28.97
2023-01-09T13:22:02.672Z,28.99
2023-01-09T13:24:43.205Z,28.99
2023-01-09T13:27:21.562Z,29.00
2023-01-09T13:29:58.091Z,28.97
2023-01-09T13:32:52.579Z,28.99
2023-01-09T13:35:22.798Z,28.99
2023-01-09T13:37:55.650Z,29.01
2023-01-09T13:40:26.656Z,29.02
2023-01-09T13:43:08.604Z,29.01
2023-01-09T13:45:40.859Z,29.01
2023-01-09T13:48:13.367Z,29.03
2023-01-09T13:50:45.585Z,29.01
2023-01-09T13:53:31.309Z,29.05
2023-01-09T13:56:11.824Z,29.07
2023-01-09T13:58:42.666Z,29.04
2023-01-09T14:01:42.070Z,29.07
2023-01-09T14:04:15.788Z,29.11
2023-01-09T14:07:21.854Z,29.09
2023-01-09T14:10:03.776Z,29.09
2023-01-09T14:12:42.910Z,29.12
2023-01-09T14:15:46.931Z,29.12
2023-01-09T14:18:29.339Z,29.13
2023-01-09T14:21:03.028Z,29.15
2023-01-09T14:23:51.612Z,29.14
2023-01-09T14:26:27.194Z,29.19
2023-01-09T14:29:35.761Z,29.21
2023-01-09T14:32:31.458Z,29.23
2023-01-09T14:35:11.122Z,29.21
2023-01-09T14:37:41.881Z,29.22
2023-01-09T14:40:38.385Z,29.24
2023-01-09T14:43:17.528Z,29.20
2023-01-09T14:46:18.510Z,29.25
2023-01-09T14:49:07.207Z,29.24
2023-01-09T14:51:44.087Z,29.23
2023-01-09T14:54:38.559Z,29.26
2023-01-09T14:57:36.368Z,29.24
2023-01-09T15:00:18.933Z,29.24
2023-01-09T15:02:50.788Z,29.26
2023-01-09T15:05:24.313Z,29.27
2023-01-09T15:08:01.499Z,29.24
2023-01-09T15:10:39.288Z,29.28
2023-01-09T15:13:16.263Z,29.28
2023-01-09T15:15:51.265Z,29.27
2023-01-09T15:18:28.501Z,29.27
2023-01-09T15:21:03.367Z,29.30
2023-01-09T15:23:34.504Z,29.28
2023-01-09T15:26:16.525Z,29.27
2023-01-09T15:28:46.739Z,29.29
2023-01-09T15:31:23.077Z,29.27
2023-01-09T15:33:54.448Z,29.33
2023-01-09T15:36:28.730Z,29.29
2023-01-09T15:38:59.453Z,29.30
2023-01-09T15:41:51.144Z,29.28
2023-01-09T15:44:28.792Z,29.23
2023-01-09T15:47:06.529Z,29.25
2023-01-09T15:49:40.555Z,29.22
2023-01-09T15:52:17.586Z,29.24
2023-01-09T15:54:49.362Z,29.17
2023-01-09T15:57:28.606Z,29.16
2023-01-09T16:00:20.067Z,29.12
2023-01-09T16:03:08.559Z,29.16
2023-01-09T16:05:53.760Z,29.10
2023-01-09T16:08:36.779Z,29.13
2023-01-09T16:11:10.877Z,29.10
2023-01-09T16:13:48.187Z,29.08
2023-01-09T16:16:34.993Z,29.08
2023-01-09T16:19:05.276Z,29.10
2023-01-09T16:21:36.984Z,29.09
2023-01-09T16:24:19.653Z,29.08
2023-01-09T16:26:50.012Z,29.10
2023-01-09T16:29:30.417Z,29.08
2023-01-09T16:32:06.882Z,29.07
2023-01-09T16:34:38.636Z,29.03
2023-01-09T16:37:08.993Z,29.04
2023-01-09T16:39:41.039Z,29.05
2023-01-09T16:42:30.662Z,29.05
2023-01-09T16:45:00.873Z,29.04
2023-01-09T16:47:31.261Z,29.00
2023-01-09T16:50:01.191Z,29.01
2023-01-09T16:52:32.369Z,29.00
2023-01-09T16:55:02.562Z,29.00
2023-01-09T16:57:33.080Z,28.99
2023-01-09T17:00:04.235Z,28.99
2023-01-09T17:02:34.500Z,28.99
2023-01-09T17:05:05.440Z,28.98
2023-01-09T17:07:36.786Z,28.97
2023-01-09T17:10:07.411Z,29.00
2023-01-09T17:12:37.627Z,28.99
2023-01-09T17:15:08.247Z,28.99
2023-01-09T17:17:38.429Z,28.97
2023-01-09T17:20:22.018Z,28.96
2023-01-09T17:22:52.236Z,28.95
2023-01-09T17:25:40.287Z,28.96
2023-01-09T17:28:36.229Z,28.93
2023-01-09T17:31:13.363Z,28.91
2023-01-09T17:33:44.606Z,28.93
2023-01-09T17:36:36.824Z,28.93
2023-01-09T17:39:07.341Z,28.95
2023-01-09T17:41:37.472Z,28.95
2023-01-09T17:44:07.941Z,28.94
2023-01-09T17:46:40.977Z,28.95
2023-01-09T17:49:19.776Z,28.95
2023-01-09T17:51:50.255Z,28.95
2023-01-09T17:54:21.343Z,28.96
2023-01-09T17:57:11.887Z,28.94
2023-01-09T17:59:42.065Z,28.94
2023-01-09T18:02:21.884Z,28.93
2023-01-09T18:04:52.178Z,28.89
2023-01-09T18:07:22.975Z,28.92
2023-01-09T18:09:53.118Z,28.90
2023-01-09T18:12:23.103Z,28.91
2023-01-09T18:14:53.946Z,28.88
2023-01-09T18:17:24.303Z,28.88
2023-01-09T18:19:54.598Z,28.88
2023-01-09T18:22:24.583Z,28.91
2023-01-09T18:24:54.838Z,28.91
2023-01-09T18:27:24.941Z,28.91
2023-01-09T18:29:55.029Z,28.91
2023-01-09T18:32:26.446Z,28.89
2023-01-09T18:34:56.686Z,28.89
2023-01-09T18:37:26.997Z,28.89
2023-01-09T18:39:57.575Z,28.85
2023-01-09T18:42:28.029Z,28.84
2023-01-09T18:44:58.250Z,28.84
2023-01-09T18:47:28.451Z,28.83
2023-01-09T18:49:58.649Z,28.84
2023-01-09T18:52:28.850Z,28.85
2023-01-09T18:54:58.969Z,28.88
2023-01-09T18:57:29.116Z,28.87
2023-01-09T18:59:59.206Z,28.88
2023-01-09T19:02:29.661Z,28.88
2023-01-09T19:04:59.853Z,28.88
2023-01-09T19:07:29.984Z,28.87
2023-01-09T19:10:00.074Z,28.84
2023-01-09T19:12:30.217Z,28.88
2023-01-09T19:15:00.316Z,28.85
2023-01-09T19:17:30.443Z,28.86
2023-01-09T19:20:00.459Z,28.84
2023-01-09T19:22:30.874Z,28.83
2023-01-09T19:25:01.037Z,28.81
2023-01-09T19:27:32.828Z,28.81
2023-01-09T19:30:03.068Z,28.81
2023-01-09T19:32:33.232Z,28.81
2023-01-09T19:35:03.390Z,28.82
2023-01-09T19:37:33.657Z,28.81
2023-01-09T19:40:03.799Z,28.84
2023-01-09T19:42:34.147Z,28.84
2023-01-09T19:45:04.475Z,28.85
2023-01-09T19:47:38.326Z,28.88
2023-01-09T19:50:10.651Z,28.85
2023-01-09T19:52:40.780Z,28.85
2023-01-09T19:55:13.503Z,28.85
2023-01-09T19:57:46.183Z,28.84
2023-01-09T20:00:17.724Z,28.80
2023-01-09T20:02:47.564Z,28.83
2023-01-09T20:05:17.806Z,28.84
2023-01-09T20:07:47.819Z,28.83
2023-01-09T20:10:18.864Z,28.83
2023-01-09T20:12:49.007Z,28.85
2023-01-09T20:15:19.066Z,28.82
2023-01-09T20:17:49.052Z,28.81
2023-01-09T20:22:46.454Z,28.79
2023-01-09T20:25:16.678Z,28.78
2023-01-09T20:27:46.686Z,28.80
2023-01-09T20:30:17.069Z,28.79
2023-01-09T20:32:49.680Z,28.78
2023-01-09T20:35:19.926Z,28.80
2023-01-09T20:37:50.175Z,28.77
2023-01-09T20:40:20.048Z,28.79
2023-01-09T20:42:49.916Z,28.79
2023-01-09T20:45:19.947Z,28.78
2023-01-09T20:47:51.454Z,28.77
2023-01-09T20:50:23.617Z,28.76
2023-01-09T20:52:54.115Z,28.78
2023-01-09T20:55:24.177Z,28.78
2023-01-09T20:57:54.262Z,28.78
2023-01-09T21:00:29.495Z,28.76
2023-01-09T21:03:00.784Z,28.76
2023-01-09T21:05:30.566Z,28.76
2023-01-09T21:08:02.494Z,28.76
2023-01-09T21:10:32.518Z,28.74
2023-01-09T21:13:02.884Z,28.75
2023-01-09T21:15:33.121Z,28.75
2023-01-09T21:18:03.037Z,28.72
2023-01-09T21:20:32.893Z,28.75
2023-01-09T21:23:02.782Z,28.75
2023-01-09T21:25:32.716Z,28.75
2023-01-09T21:28:02.661Z,28.77
2023-01-09T21:30:32.504Z,28.77
2023-01-09T21:33:05.847Z,28.79
2023-01-09T21:35:37.431Z,28.75
2023-01-09T21:38:07.472Z,28.74
2023-01-09T21:40:37.490Z,28.75
2023-01-09T21:43:42.672Z,28.77
2023-01-09T21:46:35.108Z,28.74
2023-01-09T21:49:09.126Z,28.75
2023-01-09T21:51:41.201Z,28.71
2023-01-09T21:54:11.853Z,28.72
2023-01-09T21:56:41.926Z,28.75
2023-01-09T21:59:12.427Z,28.75
2023-01-09T22:01:42.736Z,28.75
2023-01-09T22:04:16.817Z,28.74
2023-01-09T22:06:47.336Z,28.77
2023-01-09T22:09:18.168Z,28.76
2023-01-09T22:11:49.760Z,28.75
2023-01-09T22:14:21.098Z,28.79
2023-01-09T22:16:51.264Z,28.77
2023-01-09T22:19:21.274Z,28.79
2023-01-09T22:21:51.542Z,28.77
2023-01-09T22:24:23.843Z,28.80
2023-01-09T22:26:53.998Z,28.80
2023-01-09T22:29:24.525Z,28.82
2023-01-09T22:31:54.677Z,28.83
2023-01-09T22:34:24.916Z,28.84
2023-01-09T22:36:55.259Z,28.83
2023-01-09T22:39:25.843Z,28.81
2023-01-09T22:41:57.351Z,28.82
2023-01-09T22:44:28.548Z,28.81
2023-01-09T22:47:59.166Z,28.86
2023-01-09T22:50:30.558Z,28.84
2023-01-09T22:53:00.770Z,28.78
2023-01-09T22:55:30.920Z,28.77
2023-01-09T22:58:00.896Z,28.74
2023-01-09T23:00:31.773Z,28.71
2023-01-09T23:03:01.868Z,28.69
2023-01-09T23:05:31.940Z,28.70
2023-01-09T23:08:02.655Z,28.69
2023-01-09T23:10:32.743Z,28.69
2023-01-09T23:13:02.640Z,28.68
2023-01-09T23:15:33.884Z,28.65
2023-01-09T23:18:03.568Z,28.67
2023-01-09T23:20:33.473Z,28.66
2023-01-09T23:23:04.314Z,28.66
2023-01-09T23:25:35.448Z,28.67
2023-01-09T23:28:05.590Z,28.68
2023-01-09T23:30:35.759Z,28.68
2023-01-09T23:33:05.919Z,28.68
2023-01-09T23:35:37.190Z,28.72
2023-01-09T23:38:07.203Z,28.71
2023-01-09T23:40:41.830Z,28.72
2023-01-09T23:43:17.260Z,28.71
2023-01-09T23:45:48.683Z,28.71
2023-01-09T23:48:20.520Z,28.72
2023-01-09T23:50:56.041Z,28.69
2023-01-09T23:53:26.479Z,28.69
2023-01-09T23:55:57.476Z,28.69
2023-01-09T23:58:28.790Z,28.67
